createdAt,value
2023-04-18T00:08:52.720Z,2.00
2023-04-18T00:21:52.703Z,1.60
2023-04-18T00:34:52.722Z,1.70
2023-04-18T00:47:52.789Z,1.60
2023-04-18T01:00:52.721Z,1.40
2023-04-18T01:13:52.723Z,1.30
2023-04-18T01:26:52.729Z,1.20
2023-04-18T01:39:52.741Z,1.20
2023-04-18T01:52:52.741Z,1.10
2023-04-18T02:05:52.728Z,1.10
2023-04-18T02:18:52.773Z,1.10
2023-04-18T02:31:52.774Z,0.90
2023-04-18T02:44:52.756Z,1.00
2023-04-18T02:57:52.752Z,0.90
2023-04-18T03:10:55.703Z,0.85
2023-04-18T03:23:52.769Z,0.70
2023-04-18T03:36:52.777Z,0.80
2023-04-18T03:49:52.764Z,0.60
2023-04-18T04:02:52.906Z,0.80
2023-04-18T04:15:52.811Z,0.70
2023-04-18T04:29:52.788Z,0.60
2023-04-18T04:43:52.778Z,0.70
2023-04-18T04:57:52.781Z,0.60
2023-04-18T05:11:52.805Z,0.50
2023-04-18T05:25:52.798Z,0.60
2023-04-18T05:39:52.804Z,0.55
2023-04-18T05:53:52.804Z,0.60
2023-04-18T06:07:52.806Z,0.70
2023-04-18T06:21:53.238Z,1.35
2023-04-18T06:35:52.787Z,1.60
2023-04-18T06:49:52.827Z,1.80
2023-04-18T07:03:52.849Z,1.80
2023-04-18T07:17:52.846Z,1.90
2023-04-18T07:31:52.813Z,1.60
2023-04-18T07:45:52.873Z,1.70
2023-04-18T07:59:52.825Z,1.70
2023-04-18T08:13:52.831Z,1.50
2023-04-18T08:27:52.855Z,1.70
2023-04-18T08:41:52.851Z,1.70
2023-04-18T08:55:52.987Z,1.30
2023-04-18T09:09:53.384Z,3.90
2023-04-18T09:23:53.255Z,4.90
2023-04-18T09:37:53.000Z,5.70
2023-04-18T09:51:53.266Z,5.50
2023-04-18T10:05:53.024Z,5.20
2023-04-18T10:19:52.878Z,5.10
2023-04-18T10:34:01.264Z,4.90
2023-04-18T10:47:52.904Z,4.00
2023-04-18T11:01:52.889Z,4.20
2023-04-18T11:15:52.892Z,4.00
2023-04-18T11:29:52.894Z,3.50
2023-04-18T11:43:52.892Z,3.50
2023-04-18T11:57:52.901Z,3.30
2023-04-18T12:11:52.877Z,2.80
2023-04-18T12:25:52.893Z,2.75
2023-04-18T12:39:52.888Z,2.40
2023-04-18T12:53:52.898Z,2.30
2023-04-18T13:07:54.244Z,2.70
2023-04-18T13:21:52.888Z,2.30
2023-04-18T13:35:52.944Z,2.10
2023-04-18T13:49:52.900Z,1.90
2023-04-18T14:03:53.116Z,2.10
2023-04-18T14:17:52.925Z,2.00
2023-04-18T14:31:52.938Z,2.00
2023-04-18T14:45:52.963Z,2.10
2023-04-18T14:57:53.060Z,2.00
2023-04-18T15:11:52.987Z,1.80
2023-04-18T15:25:52.968Z,1.70
2023-04-18T15:39:52.972Z,1.90
2023-04-18T15:53:52.982Z,1.60
2023-04-18T16:05:53.002Z,1.60
2023-04-18T16:16:52.981Z,1.60
2023-04-18T16:30:54.902Z,1.30
2023-04-18T16:41:53.011Z,1.40
2023-04-18T16:52:53.004Z,1.20
2023-04-18T17:03:54.195Z,1.20
2023-04-18T17:17:53.026Z,1.30
2023-04-18T17:31:53.029Z,1.30
2023-04-18T17:45:53.092Z,1.20
2023-04-18T17:59:53.032Z,1.10
2023-04-18T18:13:53.035Z,1.40
2023-04-18T18:27:53.044Z,3.70
2023-04-18T18:41:53.049Z,14.60
2023-04-18T18:54:53.042Z,18.60
2023-04-18T19:07:53.044Z,21.10
2023-04-18T19:20:53.047Z,20.90
2023-04-18T19:33:53.048Z,19.45
2023-04-18T19:46:53.065Z,17.80
2023-04-18T19:59:53.084Z,16.90
2023-04-18T20:12:53.084Z,16.40
2023-04-18T20:25:53.076Z,14.80
2023-04-18T20:38:53.093Z,14.10
2023-04-18T20:51:53.080Z,12.90
2023-04-18T21:04:53.134Z,12.10
2023-04-18T21:17:53.178Z,11.90
2023-04-18T21:30:53.111Z,11.10
2023-04-18T21:43:53.151Z,10.20
2023-04-18T21:56:53.132Z,9.60
2023-04-18T22:09:53.128Z,9.10
2023-04-18T22:22:53.145Z,8.50
2023-04-18T22:35:53.149Z,8.40
2023-04-18T22:48:53.139Z,7.70
2023-04-18T23:01:53.278Z,7.50
2023-04-18T23:14:53.194Z,6.90
2023-04-18T23:27:53.160Z,6.90
2023-04-18T23:40:53.247Z,5.90
2023-04-18T23:53:53.171Z,6.00
